createdAt,value
2022-08-25T00:01:50.274Z,45.60
2022-08-25T00:04:17.843Z,45.60
2022-08-25T00:06:44.910Z,45.70
2022-08-25T00:09:11.429Z,45.50
2022-08-25T00:11:37.953Z,45.50
2022-08-25T00:14:04.466Z,45.60
2022-08-25T00:16:30.989Z,45.60
2022-08-25T00:18:57.508Z,45.50
2022-08-25T00:21:24.041Z,45.40
2022-08-25T00:23:51.423Z,45.50
2022-08-25T00:26:17.969Z,45.40
2022-08-25T00:28:44.479Z,45.50
2022-08-25T00:31:11.102Z,45.70
2022-08-25T00:33:37.644Z,45.60
2022-08-25T00:36:04.163Z,45.50
2022-08-25T00:38:30.684Z,45.50
2022-08-25T00:40:57.233Z,45.50
2022-08-25T00:43:23.758Z,45.60
2022-08-25T00:45:50.325Z,45.50
2022-08-25T00:48:16.872Z,45.60
2022-08-25T00:50:43.426Z,45.60
2022-08-25T00:53:10.188Z,45.40
2022-08-25T00:55:36.718Z,45.40
2022-08-25T00:58:03.356Z,45.30
2022-08-25T01:00:30.045Z,45.60
2022-08-25T01:02:57.494Z,45.40
2022-08-25T01:05:24.047Z,45.30
2022-08-25T01:07:50.574Z,45.30
2022-08-25T01:10:18.254Z,45.60
2022-08-25T01:12:44.778Z,45.50
2022-08-25T01:15:11.326Z,45.40
2022-08-25T01:17:37.855Z,45.40
2022-08-25T01:20:04.387Z,45.40
2022-08-25T01:22:33.464Z,45.40
2022-08-25T01:24:59.985Z,45.30
2022-08-25T01:27:26.511Z,45.40
2022-08-25T01:29:53.048Z,45.30
2022-08-25T01:32:19.573Z,45.20
2022-08-25T01:34:46.103Z,45.30
2022-08-25T01:37:13.356Z,45.30
2022-08-25T01:39:40.056Z,45.10
2022-08-25T01:42:09.515Z,45.20
2022-08-25T01:44:36.045Z,45.20
2022-08-25T01:47:02.565Z,45.20
2022-08-25T01:49:29.072Z,45.10
2022-08-25T01:51:55.598Z,45.10
2022-08-25T01:54:22.120Z,45.10
2022-08-25T01:56:48.649Z,45.10
2022-08-25T01:59:15.162Z,45.20
2022-08-25T02:01:51.579Z,44.90
2022-08-25T02:04:26.298Z,45.10
2022-08-25T02:06:52.823Z,45.00
2022-08-25T02:09:19.329Z,45.00
2022-08-25T02:11:45.876Z,45.00
2022-08-25T02:14:12.399Z,44.80
2022-08-25T02:16:39.033Z,44.90
2022-08-25T02:19:05.549Z,44.80
2022-08-25T02:21:32.054Z,45.10
2022-08-25T02:23:58.573Z,44.90
2022-08-25T02:26:25.318Z,44.80
2022-08-25T02:28:51.846Z,44.80
2022-08-25T02:31:18.403Z,44.90
2022-08-25T02:33:44.949Z,44.80
2022-08-25T02:36:11.484Z,44.70
2022-08-25T02:38:38.028Z,44.70
2022-08-25T02:41:04.531Z,44.70
2022-08-25T02:43:31.029Z,44.70
2022-08-25T02:45:57.601Z,44.80
2022-08-25T02:48:24.187Z,44.70
2022-08-25T02:50:50.729Z,44.70
2022-08-25T02:53:18.686Z,44.80
2022-08-25T02:55:45.594Z,44.80
2022-08-25T02:58:12.127Z,44.80
2022-08-25T03:00:38.675Z,44.80
2022-08-25T03:03:06.455Z,44.80
2022-08-25T03:05:33.010Z,44.70
2022-08-25T03:07:59.555Z,44.70
2022-08-25T03:10:26.128Z,44.70
2022-08-25T03:12:52.627Z,44.80
2022-08-25T03:15:19.160Z,44.70
2022-08-25T03:17:45.982Z,44.80
2022-08-25T03:20:15.616Z,44.80
2022-08-25T03:22:42.146Z,44.70
2022-08-25T03:25:08.670Z,44.80
2022-08-25T03:27:35.177Z,44.80
2022-08-25T03:30:01.703Z,44.80
2022-08-25T03:32:28.238Z,44.80
2022-08-25T03:34:54.761Z,44.80
2022-08-25T03:37:21.273Z,44.70
2022-08-25T03:39:47.852Z,44.70
2022-08-25T03:42:14.424Z,44.70
2022-08-25T03:44:40.946Z,44.70
2022-08-25T03:47:07.456Z,44.60
2022-08-25T03:49:33.954Z,44.70
2022-08-25T03:52:01.263Z,44.70
2022-08-25T03:54:27.770Z,44.60
2022-08-25T03:56:54.317Z,44.60
2022-08-25T03:59:20.826Z,44.60
2022-08-25T04:01:50.341Z,44.50
2022-08-25T04:04:20.619Z,44.50
2022-08-25T04:06:47.137Z,44.60
2022-08-25T04:09:13.654Z,44.50
2022-08-25T04:11:40.191Z,44.50
2022-08-25T04:14:09.125Z,44.50
2022-08-25T04:16:39.540Z,44.50
2022-08-25T04:19:06.090Z,44.50
2022-08-25T04:21:32.621Z,44.50
2022-08-25T04:23:59.124Z,44.50
2022-08-25T04:26:25.659Z,44.50
2022-08-25T04:28:52.168Z,44.50
2022-08-25T04:31:18.749Z,44.50
2022-08-25T04:33:45.281Z,44.50
2022-08-25T04:36:12.555Z,44.40
2022-08-25T04:38:39.142Z,44.40
2022-08-25T04:41:05.890Z,44.40
2022-08-25T04:43:32.418Z,44.40
2022-08-25T04:45:59.014Z,44.40
2022-08-25T04:48:25.614Z,44.30
2022-08-25T04:50:52.127Z,44.30
2022-08-25T04:53:18.623Z,44.30
2022-08-25T04:55:45.434Z,44.30
2022-08-25T04:58:14.887Z,44.40
2022-08-25T05:00:43.333Z,44.30
2022-08-25T05:03:09.865Z,44.40
2022-08-25T05:05:36.424Z,44.30
2022-08-25T05:08:02.990Z,44.30
2022-08-25T05:10:29.543Z,44.30
2022-08-25T05:12:56.072Z,44.30
2022-08-25T05:15:23.903Z,44.30
2022-08-25T05:17:55.215Z,44.30
2022-08-25T05:20:22.420Z,44.40
2022-08-25T05:22:48.935Z,44.40
2022-08-25T05:25:15.465Z,44.40
2022-08-25T05:27:41.997Z,44.40
2022-08-25T05:30:08.933Z,44.40
2022-08-25T05:32:35.453Z,44.40
2022-08-25T05:35:01.978Z,44.40
2022-08-25T05:37:28.513Z,44.40
2022-08-25T05:39:55.099Z,44.40
2022-08-25T05:42:21.648Z,44.40
2022-08-25T05:44:48.173Z,44.50
2022-08-25T05:47:14.687Z,44.50
2022-08-25T05:49:41.206Z,44.50
2022-08-25T05:52:07.715Z,44.50
2022-08-25T05:54:34.238Z,44.50
2022-08-25T05:57:00.758Z,44.60
2022-08-25T05:59:27.286Z,44.60
2022-08-25T06:01:53.805Z,44.70
2022-08-25T06:04:20.307Z,44.70
2022-08-25T06:06:46.846Z,44.70
2022-08-25T06:09:13.373Z,44.70
2022-08-25T06:11:45.750Z,44.70
2022-08-25T06:14:12.251Z,44.70
2022-08-25T06:16:38.957Z,44.70
2022-08-25T06:19:05.683Z,44.70
2022-08-25T06:21:32.195Z,44.80
2022-08-25T06:23:58.736Z,44.70
2022-08-25T06:26:25.241Z,44.80
2022-08-25T06:28:51.760Z,44.80
2022-08-25T06:31:18.333Z,44.80
2022-08-25T06:33:44.887Z,44.70
2022-08-25T06:36:11.423Z,44.70
2022-08-25T06:38:37.948Z,44.70
2022-08-25T06:41:04.478Z,44.70
2022-08-25T06:43:30.987Z,44.70
2022-08-25T06:45:57.505Z,44.70
2022-08-25T06:48:24.021Z,44.80
2022-08-25T06:50:50.544Z,44.70
2022-08-25T06:53:17.052Z,44.70
2022-08-25T06:55:43.571Z,44.70
2022-08-25T06:58:10.250Z,44.80
2022-08-25T07:00:37.855Z,44.80
2022-08-25T07:03:04.404Z,44.80
2022-08-25T07:05:43.102Z,44.80
2022-08-25T07:08:10.505Z,44.80
2022-08-25T07:10:37.062Z,44.90
2022-08-25T07:13:04.151Z,44.90
2022-08-25T07:15:30.696Z,44.80
2022-08-25T07:17:57.209Z,44.80
2022-08-25T07:20:27.799Z,44.90
2022-08-25T07:22:55.095Z,44.80
2022-08-25T07:25:21.803Z,44.80
2022-08-25T07:27:48.320Z,44.80
2022-08-25T07:30:14.852Z,44.80
2022-08-25T07:32:41.981Z,44.80
2022-08-25T07:35:09.599Z,44.80
2022-08-25T07:37:48.789Z,44.80
2022-08-25T07:40:21.918Z,44.90
2022-08-25T07:42:48.482Z,44.90
2022-08-25T07:45:20.395Z,44.90
2022-08-25T07:47:47.456Z,44.90
2022-08-25T07:50:14.610Z,44.90
2022-08-25T07:52:41.243Z,44.90
2022-08-25T07:55:10.921Z,44.90
2022-08-25T07:57:37.826Z,44.90
2022-08-25T08:00:04.341Z,44.80
2022-08-25T08:02:32.500Z,44.90
2022-08-25T08:04:59.042Z,44.90
2022-08-25T08:07:25.835Z,44.90
2022-08-25T08:10:42.367Z,44.90
2022-08-25T08:12:55.419Z,44.80
2022-08-25T08:15:22.001Z,44.90
2022-08-25T08:17:48.650Z,44.90
2022-08-25T08:20:16.770Z,44.90
2022-08-25T08:22:49.704Z,45.00
2022-08-25T08:25:18.873Z,44.90
2022-08-25T08:27:48.149Z,44.90
2022-08-25T08:30:14.652Z,44.90
2022-08-25T08:33:08.673Z,45.00
2022-08-25T08:35:27.670Z,45.00
2022-08-25T08:37:54.175Z,45.00
2022-08-25T08:40:20.853Z,45.00
2022-08-25T08:42:47.526Z,45.00
2022-08-25T08:45:14.047Z,45.00
2022-08-25T08:47:40.577Z,45.00
2022-08-25T08:50:07.107Z,45.10
2022-08-25T08:52:33.651Z,45.10
2022-08-25T08:55:00.162Z,45.10
2022-08-25T08:57:26.684Z,45.10
2022-08-25T08:59:53.199Z,45.10
2022-08-25T09:02:38.805Z,45.10
2022-08-25T09:05:06.174Z,45.10
2022-08-25T09:07:33.895Z,45.10
2022-08-25T09:10:00.644Z,45.20
2022-08-25T09:12:27.703Z,45.20
2022-08-25T09:14:54.766Z,45.20
2022-08-25T09:17:21.298Z,45.20
2022-08-25T09:19:47.807Z,45.20
2022-08-25T09:22:33.523Z,45.20
2022-08-25T09:25:02.495Z,45.20
2022-08-25T09:27:30.082Z,45.20
2022-08-25T09:29:56.617Z,45.30
2022-08-25T09:32:24.388Z,45.30
2022-08-25T09:34:58.143Z,45.30
2022-08-25T09:37:24.737Z,45.30
2022-08-25T09:39:51.288Z,45.30
2022-08-25T09:42:22.037Z,45.40
2022-08-25T09:44:50.502Z,45.40
2022-08-25T09:47:17.016Z,45.40
2022-08-25T09:49:44.762Z,45.50
2022-08-25T09:52:11.283Z,45.50
2022-08-25T09:54:44.122Z,45.60
2022-08-25T09:57:11.507Z,45.50
2022-08-25T09:59:38.565Z,45.50
2022-08-25T10:02:05.170Z,45.60
2022-08-25T10:04:31.730Z,45.50
2022-08-25T10:06:58.266Z,45.60
2022-08-25T10:09:24.790Z,45.60
2022-08-25T10:11:51.306Z,45.60
2022-08-25T10:14:24.269Z,45.70
2022-08-25T10:16:51.463Z,45.80
2022-08-25T10:19:17.992Z,45.80
2022-08-25T10:21:44.510Z,45.80
2022-08-25T10:24:11.446Z,45.90
2022-08-25T10:26:37.967Z,45.90
2022-08-25T10:29:04.467Z,45.90
2022-08-25T10:31:32.974Z,46.00
2022-08-25T10:34:01.378Z,46.00
2022-08-25T10:36:29.996Z,46.00
2022-08-25T10:38:56.518Z,45.90
2022-08-25T10:41:23.880Z,45.90
2022-08-25T10:43:50.394Z,46.10
2022-08-25T10:46:18.754Z,46.00
2022-08-25T10:48:45.381Z,46.10
2022-08-25T10:51:18.698Z,46.10
2022-08-25T10:53:46.995Z,46.10
2022-08-25T10:56:15.650Z,46.20
2022-08-25T10:58:43.278Z,46.20
2022-08-25T11:01:09.846Z,46.40
2022-08-25T11:03:36.405Z,46.20
2022-08-25T11:06:02.964Z,46.40
2022-08-25T11:08:34.075Z,46.50
2022-08-25T11:11:00.617Z,46.50
2022-08-25T11:13:27.134Z,46.50
2022-08-25T11:16:15.504Z,46.60
2022-08-25T11:18:40.166Z,46.60
2022-08-25T11:21:07.217Z,46.60
2022-08-25T11:23:35.207Z,46.60
2022-08-25T11:26:04.971Z,46.70
2022-08-25T11:28:31.914Z,46.80
2022-08-25T11:30:58.477Z,46.90
2022-08-25T11:33:26.039Z,46.80
2022-08-25T11:35:52.580Z,46.90
2022-08-25T11:38:19.107Z,46.90
2022-08-25T11:40:50.137Z,46.90
2022-08-25T11:43:16.915Z,46.90
2022-08-25T11:45:43.838Z,46.90
2022-08-25T11:48:12.312Z,47.00
2022-08-25T11:50:40.015Z,46.90
2022-08-25T11:53:06.568Z,47.00
2022-08-25T11:55:37.912Z,46.90
2022-08-25T11:58:04.532Z,47.00
2022-08-25T12:00:31.267Z,47.00
2022-08-25T12:03:01.397Z,47.10
2022-08-25T12:05:28.328Z,47.20
2022-08-25T12:07:54.872Z,47.10
2022-08-25T12:10:22.730Z,47.20
2022-08-25T12:12:49.376Z,47.20
2022-08-25T12:15:16.879Z,47.30
2022-08-25T12:17:44.668Z,47.30
2022-08-25T12:20:11.208Z,47.30
2022-08-25T12:22:37.718Z,47.40
2022-08-25T12:25:10.049Z,47.50
2022-08-25T12:27:36.565Z,47.50
2022-08-25T12:30:03.086Z,47.40
2022-08-25T12:32:31.769Z,47.50
2022-08-25T12:34:58.291Z,47.50
2022-08-25T12:37:24.799Z,47.50
2022-08-25T12:39:51.340Z,47.60
2022-08-25T12:42:20.881Z,47.60
2022-08-25T12:44:49.808Z,47.60
2022-08-25T12:47:16.316Z,47.60
2022-08-25T12:49:43.615Z,47.60
2022-08-25T12:52:10.732Z,47.60
2022-08-25T12:54:40.035Z,47.60
2022-08-25T12:57:06.542Z,47.60
2022-08-25T12:59:33.039Z,47.60
2022-08-25T13:01:59.706Z,47.70
2022-08-25T13:04:29.516Z,47.70
2022-08-25T13:06:56.034Z,47.60
2022-08-25T13:09:22.554Z,47.70
2022-08-25T13:11:50.211Z,47.70
2022-08-25T13:14:19.103Z,47.60
2022-08-25T13:16:45.714Z,47.60
2022-08-25T13:19:12.248Z,47.70
2022-08-25T13:21:38.785Z,47.80
2022-08-25T13:24:05.939Z,47.80
2022-08-25T13:26:32.547Z,47.70
2022-08-25T13:28:59.864Z,47.80
2022-08-25T13:31:26.414Z,47.70
2022-08-25T13:33:54.737Z,47.70
2022-08-25T13:36:21.524Z,47.70
2022-08-25T13:38:48.038Z,47.70
2022-08-25T13:41:14.544Z,47.70
2022-08-25T13:43:46.316Z,47.70
2022-08-25T13:46:13.230Z,47.70
2022-08-25T13:48:49.570Z,47.70
2022-08-25T13:51:16.466Z,47.70
2022-08-25T13:53:46.683Z,47.70
2022-08-25T13:58:46.554Z,47.80
2022-08-25T14:01:22.994Z,47.70
2022-08-25T14:04:01.458Z,47.80
2022-08-25T14:06:28.158Z,47.90
2022-08-25T14:08:54.878Z,47.70
2022-08-25T14:11:21.449Z,47.60
2022-08-25T14:13:48.674Z,47.60
2022-08-25T14:16:15.674Z,47.70
2022-08-25T14:18:44.125Z,47.80
2022-08-25T14:21:10.650Z,47.70
2022-08-25T14:23:37.708Z,47.80
2022-08-25T14:26:04.241Z,47.70
2022-08-25T14:28:32.932Z,47.80
2022-08-25T14:30:59.446Z,47.70
2022-08-25T14:33:26.759Z,47.70
2022-08-25T14:35:53.951Z,47.70
2022-08-25T14:38:21.492Z,47.60
2022-08-25T14:40:48.891Z,47.60
2022-08-25T14:43:16.854Z,47.60
2022-08-25T14:45:43.433Z,47.60
2022-08-25T14:48:10.317Z,47.60
2022-08-25T14:50:37.199Z,47.50
2022-08-25T14:53:03.913Z,47.50
2022-08-25T14:55:31.585Z,47.50
2022-08-25T14:57:58.494Z,47.60
2022-08-25T15:00:25.124Z,47.50
2022-08-25T15:02:52.904Z,47.40
2022-08-25T15:05:20.103Z,47.50
2022-08-25T15:07:47.408Z,47.50
2022-08-25T15:10:14.939Z,47.50
2022-08-25T15:12:47.826Z,47.40
2022-08-25T15:15:16.181Z,47.40
2022-08-25T15:17:44.514Z,47.40
2022-08-25T15:20:11.311Z,47.40
2022-08-25T15:22:37.820Z,47.40
2022-08-25T15:25:04.627Z,47.40
2022-08-25T15:27:31.145Z,47.30
2022-08-25T15:29:57.851Z,47.40
2022-08-25T15:32:24.703Z,47.30
2022-08-25T15:34:58.216Z,47.30
2022-08-25T15:37:24.726Z,47.30
2022-08-25T15:39:51.287Z,47.30
2022-08-25T15:42:18.131Z,47.40
2022-08-25T15:44:52.930Z,47.30
2022-08-25T15:47:20.226Z,47.30
2022-08-25T15:49:47.084Z,47.20
2022-08-25T15:52:13.609Z,47.20
2022-08-25T15:54:40.112Z,47.20
2022-08-25T15:57:08.924Z,47.10
2022-08-25T15:59:35.735Z,47.20
2022-08-25T16:02:02.329Z,47.10
2022-08-25T16:04:30.911Z,47.10
2022-08-25T16:06:58.779Z,47.10
2022-08-25T16:09:25.840Z,47.10
2022-08-25T16:11:56.708Z,47.10
2022-08-25T16:14:24.780Z,47.10
2022-08-25T16:16:52.587Z,47.00
2022-08-25T16:19:19.107Z,47.00
2022-08-25T16:21:47.329Z,47.00
2022-08-25T16:24:14.535Z,46.90
2022-08-25T16:26:48.210Z,46.90
2022-08-25T16:29:15.213Z,46.80
2022-08-25T16:31:43.086Z,46.80
2022-08-25T16:34:09.705Z,46.70
2022-08-25T16:36:37.701Z,46.50
2022-08-25T16:39:04.247Z,46.10
2022-08-25T16:41:36.488Z,45.80
2022-08-25T16:44:03.012Z,45.70
2022-08-25T16:46:29.688Z,45.50
2022-08-25T16:48:56.241Z,45.50
2022-08-25T16:51:25.683Z,45.50
2022-08-25T16:53:56.378Z,45.60
2022-08-25T16:56:22.905Z,45.90
2022-08-25T16:58:49.433Z,46.00
2022-08-25T17:01:18.905Z,46.20
2022-08-25T17:03:45.507Z,46.30
2022-08-25T17:06:12.149Z,46.40
2022-08-25T17:08:39.809Z,46.50
2022-08-25T17:11:06.334Z,46.60
2022-08-25T17:13:33.457Z,46.60
2022-08-25T17:16:02.540Z,46.80
2022-08-25T17:18:29.624Z,46.80
2022-08-25T17:20:56.146Z,46.90
2022-08-25T17:23:22.660Z,47.00
2022-08-25T17:25:49.183Z,47.10
2022-08-25T17:28:15.889Z,47.10
2022-08-25T17:30:42.972Z,47.20
2022-08-25T17:33:09.508Z,47.10
2022-08-25T17:35:36.021Z,47.20
2022-08-25T17:38:02.588Z,47.20
2022-08-25T17:40:32.994Z,47.30
2022-08-25T17:43:01.587Z,47.30
2022-08-25T17:45:28.083Z,47.30
2022-08-25T17:47:54.912Z,47.30
2022-08-25T17:50:21.428Z,47.40
2022-08-25T17:52:47.964Z,47.40
2022-08-25T17:55:14.471Z,47.40
2022-08-25T17:57:42.095Z,47.40
2022-08-25T18:00:08.611Z,47.40
2022-08-25T18:02:37.043Z,47.50
2022-08-25T18:05:04.381Z,47.50
2022-08-25T18:07:31.223Z,47.50
2022-08-25T18:09:57.738Z,47.50
2022-08-25T18:12:28.326Z,47.50
2022-08-25T18:14:54.853Z,47.50
2022-08-25T18:17:22.927Z,47.50
2022-08-25T18:19:49.567Z,47.50
2022-08-25T18:22:16.129Z,47.50
2022-08-25T18:24:42.636Z,47.50
2022-08-25T18:27:09.173Z,47.60
2022-08-25T18:29:35.702Z,47.60
2022-08-25T18:32:02.354Z,47.50
2022-08-25T18:34:31.220Z,47.50
2022-08-25T18:36:58.337Z,47.50
2022-08-25T18:39:24.854Z,47.50
2022-08-25T18:41:51.572Z,47.50
2022-08-25T18:44:18.081Z,47.50
2022-08-25T18:46:45.392Z,47.60
2022-08-25T18:49:12.149Z,47.50
2022-08-25T18:51:46.372Z,47.60
2022-08-25T18:54:22.897Z,47.60
2022-08-25T18:56:50.019Z,47.50
2022-08-25T18:59:16.538Z,47.60
2022-08-25T19:01:43.211Z,47.60
2022-08-25T19:04:09.813Z,47.60
2022-08-25T19:06:36.326Z,47.60
2022-08-25T19:09:02.857Z,47.60
2022-08-25T19:11:29.358Z,47.50
2022-08-25T19:13:56.528Z,47.50
2022-08-25T19:16:23.111Z,47.50
2022-08-25T19:18:52.313Z,47.40
2022-08-25T19:21:18.964Z,47.50
2022-08-25T19:23:49.378Z,47.50
2022-08-25T19:26:17.238Z,47.40
2022-08-25T19:28:45.688Z,47.40
2022-08-25T19:31:12.557Z,47.40
2022-08-25T19:33:45.043Z,47.50
2022-08-25T19:36:11.917Z,47.50
2022-08-25T19:38:38.654Z,47.50
2022-08-25T19:41:14.430Z,47.40
2022-08-25T19:43:41.309Z,47.30
2022-08-25T19:46:23.429Z,47.40
2022-08-25T19:48:50.597Z,47.30
2022-08-25T19:51:19.290Z,47.30
2022-08-25T19:53:53.587Z,47.30
2022-08-25T19:56:21.386Z,47.40
2022-08-25T19:58:47.940Z,47.30
2022-08-25T20:01:18.062Z,47.30
2022-08-25T20:03:45.120Z,47.30
2022-08-25T20:06:16.418Z,47.30
2022-08-25T20:08:42.961Z,47.30
2022-08-25T20:11:09.494Z,47.30
2022-08-25T20:13:36.001Z,47.30
2022-08-25T20:16:02.542Z,47.30
2022-08-25T20:18:32.039Z,47.30
2022-08-25T20:20:58.560Z,47.30
2022-08-25T20:23:25.328Z,47.30
2022-08-25T20:25:54.429Z,47.30
2022-08-25T20:28:22.733Z,47.30
2022-08-25T20:30:49.337Z,47.30
2022-08-25T20:33:22.682Z,47.30
2022-08-25T20:35:49.706Z,47.30
2022-08-25T20:38:19.545Z,47.20
2022-08-25T20:40:46.077Z,47.20
2022-08-25T20:43:12.584Z,47.20
2022-08-25T20:45:39.113Z,47.20
2022-08-25T20:48:05.768Z,47.10
2022-08-25T20:50:33.008Z,47.20
2022-08-25T20:52:59.521Z,47.20
2022-08-25T20:55:27.479Z,47.20
2022-08-25T20:57:54.009Z,47.20
2022-08-25T21:00:23.514Z,47.20
2022-08-25T21:02:51.491Z,47.20
2022-08-25T21:05:18.080Z,47.20
2022-08-25T21:07:44.593Z,47.20
2022-08-25T21:10:14.544Z,47.20
2022-08-25T21:12:41.215Z,47.10
2022-08-25T21:15:08.788Z,47.20
2022-08-25T21:17:35.317Z,47.20
2022-08-25T21:20:01.841Z,47.20
2022-08-25T21:22:28.631Z,47.20
2022-08-25T21:24:55.175Z,47.10
2022-08-25T21:27:21.692Z,47.10
2022-08-25T21:29:54.681Z,47.20
2022-08-25T21:32:21.852Z,47.10
2022-08-25T21:34:48.383Z,47.20
2022-08-25T21:37:14.894Z,47.10
2022-08-25T21:39:41.406Z,47.10
2022-08-25T21:42:08.145Z,47.20
2022-08-25T21:44:35.364Z,47.20
2022-08-25T21:47:02.147Z,47.10
2022-08-25T21:49:28.676Z,47.10
2022-08-25T21:52:04.354Z,47.20
2022-08-25T21:54:31.015Z,47.10
2022-08-25T21:56:57.527Z,47.20
2022-08-25T21:59:24.051Z,47.20
2022-08-25T22:01:50.559Z,47.30
2022-08-25T22:04:17.517Z,47.30
2022-08-25T22:06:45.258Z,47.20
2022-08-25T22:09:16.702Z,47.30
2022-08-25T22:11:45.529Z,47.30
2022-08-25T22:14:12.045Z,47.40
2022-08-25T22:16:38.635Z,47.40
2022-08-25T22:19:05.205Z,47.40
2022-08-25T22:21:31.735Z,47.40
2022-08-25T22:23:58.321Z,47.40
2022-08-25T22:26:25.294Z,47.40
2022-08-25T22:28:54.272Z,47.40
2022-08-25T22:31:21.186Z,47.50
2022-08-25T22:33:47.777Z,47.50
2022-08-25T22:36:14.305Z,47.50
2022-08-25T22:38:40.823Z,47.50
2022-08-25T22:41:07.776Z,47.50
2022-08-25T22:43:35.878Z,47.50
2022-08-25T22:46:02.474Z,47.60
2022-08-25T22:48:29.040Z,47.50
2022-08-25T22:50:55.585Z,47.50
2022-08-25T22:53:24.523Z,47.50
2022-08-25T22:55:51.046Z,47.60
2022-08-25T22:58:18.747Z,47.50
2022-08-25T23:00:45.384Z,47.50
2022-08-25T23:03:13.252Z,47.50
2022-08-25T23:05:39.790Z,47.50
2022-08-25T23:08:06.306Z,47.50
2022-08-25T23:10:33.476Z,47.60
2022-08-25T23:12:59.981Z,47.50
2022-08-25T23:15:26.504Z,47.50
2022-08-25T23:17:52.996Z,47.50
2022-08-25T23:20:19.524Z,47.50
2022-08-25T23:22:47.932Z,47.40
2022-08-25T23:25:20.017Z,47.50
2022-08-25T23:27:46.639Z,47.50
2022-08-25T23:30:13.237Z,47.50
2022-08-25T23:32:39.766Z,47.50
2022-08-25T23:35:06.285Z,47.50
2022-08-25T23:37:32.779Z,47.60
2022-08-25T23:39:59.435Z,47.50
2022-08-25T23:42:25.977Z,47.60
2022-08-25T23:44:52.679Z,47.60
2022-08-25T23:47:19.203Z,47.50
2022-08-25T23:49:45.974Z,47.50
2022-08-25T23:52:16.661Z,47.60
2022-08-25T23:54:43.164Z,47.60
2022-08-25T23:57:09.669Z,47.60
2022-08-25T23:59:36.197Z,47.60
